createdAt,value
2019-03-12T00:00:47.801Z,95.00
2019-03-12T00:03:18.268Z,94.90
2019-03-12T00:05:48.747Z,94.00
2019-03-12T00:08:19.212Z,94.10
2019-03-12T00:10:49.702Z,94.20
2019-03-12T00:13:20.210Z,94.30
2019-03-12T00:15:50.724Z,94.60
2019-03-12T00:18:21.211Z,94.50
2019-03-12T00:20:53.233Z,93.50
2019-03-12T00:23:24.350Z,93.60
2019-03-12T00:25:54.897Z,94.40
2019-03-12T00:28:25.365Z,93.80
2019-03-12T00:30:55.865Z,93.90
2019-03-12T00:33:26.357Z,93.70
2019-03-12T00:35:56.854Z,93.60
2019-03-12T00:38:27.342Z,92.80
2019-03-12T00:40:58.710Z,92.40
2019-03-12T00:43:29.170Z,92.50
2019-03-12T00:45:59.628Z,92.80
2019-03-12T00:48:31.684Z,92.90
2019-03-12T00:51:02.168Z,92.80
2019-03-12T00:53:32.646Z,93.20
2019-03-12T00:56:03.146Z,93.20
2019-03-12T00:58:33.621Z,93.00
2019-03-12T01:01:04.180Z,93.00
2019-03-12T01:03:34.632Z,93.40
2019-03-12T01:06:05.271Z,93.60
2019-03-12T01:08:35.839Z,93.50
2019-03-12T01:11:06.449Z,93.70
2019-03-12T01:13:38.177Z,93.90
2019-03-12T01:16:08.660Z,94.30
2019-03-12T01:18:39.114Z,94.30
2019-03-12T01:21:10.268Z,94.20
2019-03-12T01:23:40.736Z,93.60
2019-03-12T01:26:11.231Z,94.10
2019-03-12T01:28:41.731Z,94.40
2019-03-12T01:31:12.207Z,94.70
2019-03-12T01:33:42.932Z,94.90
2019-03-12T01:36:13.391Z,95.00
2019-03-12T01:38:43.953Z,95.10
2019-03-12T01:41:14.424Z,95.30
2019-03-12T01:43:45.003Z,95.40
2019-03-12T01:46:15.445Z,95.30
2019-03-12T01:48:45.949Z,95.30
2019-03-12T01:51:16.406Z,95.30
2019-03-12T01:53:46.895Z,95.50
2019-03-12T01:56:17.363Z,95.70
2019-03-12T01:58:47.865Z,95.80
2019-03-12T02:01:18.309Z,95.90
2019-03-12T02:03:48.904Z,96.10
2019-03-12T02:06:19.373Z,96.10
2019-03-12T02:08:49.895Z,96.30
2019-03-12T02:11:20.357Z,96.20
2019-03-12T02:13:50.942Z,96.40
2019-03-12T02:16:21.388Z,96.20
2019-03-12T02:18:51.904Z,96.10
2019-03-12T02:21:22.381Z,96.10
2019-03-12T02:23:52.864Z,95.70
2019-03-12T02:26:23.434Z,95.70
2019-03-12T02:28:53.887Z,95.50
2019-03-12T02:31:24.383Z,95.60
2019-03-12T02:33:54.834Z,95.10
2019-03-12T02:36:25.498Z,94.80
2019-03-12T02:38:55.984Z,94.70
2019-03-12T02:41:26.436Z,94.10
2019-03-12T02:43:56.925Z,94.00
2019-03-12T02:46:27.420Z,93.90
2019-03-12T02:48:57.906Z,94.10
2019-03-12T02:51:30.832Z,93.80
2019-03-12T02:54:01.277Z,93.70
2019-03-12T02:56:31.867Z,93.70
2019-03-12T02:59:03.513Z,93.80
2019-03-12T03:01:34.002Z,93.40
2019-03-12T03:04:04.478Z,93.40
2019-03-12T03:06:36.587Z,93.40
2019-03-12T03:09:07.941Z,93.30
2019-03-12T03:11:39.772Z,93.20
2019-03-12T03:14:29.417Z,93.40
2019-03-12T03:16:59.897Z,93.60
2019-03-12T03:19:30.348Z,93.80
2019-03-12T03:22:00.971Z,93.50
2019-03-12T03:24:31.516Z,93.40
2019-03-12T03:27:02.003Z,93.10
2019-03-12T03:29:32.475Z,92.90
2019-03-12T03:32:07.085Z,93.00
2019-03-12T03:34:39.094Z,92.70
2019-03-12T03:37:09.586Z,92.80
2019-03-12T03:39:40.115Z,92.80
2019-03-12T03:42:10.589Z,92.80
2019-03-12T03:44:41.059Z,92.80
2019-03-12T03:47:12.958Z,92.40
2019-03-12T03:49:43.510Z,92.50
2019-03-12T03:52:13.968Z,92.50
2019-03-12T03:54:44.424Z,92.10
2019-03-12T03:57:14.908Z,92.00
2019-03-12T03:59:45.431Z,92.20
2019-03-12T04:02:15.980Z,91.30
2019-03-12T04:04:46.457Z,90.70
2019-03-12T04:07:16.939Z,91.20
2019-03-12T04:09:47.505Z,91.60
2019-03-12T04:12:19.133Z,91.50
2019-03-12T04:14:49.611Z,91.70
2019-03-12T04:17:20.060Z,91.70
2019-03-12T04:19:50.565Z,91.80
2019-03-12T04:22:21.064Z,91.00
2019-03-12T04:24:51.588Z,90.90
2019-03-12T04:27:22.103Z,91.10
2019-03-12T04:29:52.652Z,91.40
2019-03-12T04:32:23.114Z,90.80
2019-03-12T04:34:53.609Z,90.30
2019-03-12T04:37:24.143Z,90.10
2019-03-12T04:39:54.652Z,89.10
2019-03-12T04:42:25.111Z,85.20
2019-03-12T04:44:55.635Z,84.90
2019-03-12T04:47:26.119Z,85.10
2019-03-12T04:49:58.252Z,85.40
2019-03-12T04:52:28.713Z,83.40
2019-03-12T04:55:04.452Z,83.20
2019-03-12T04:57:34.924Z,83.00
2019-03-12T05:00:16.380Z,83.50
2019-03-12T05:02:46.938Z,82.00
2019-03-12T05:05:17.843Z,82.90
2019-03-12T05:07:48.330Z,83.80
2019-03-12T05:10:18.900Z,84.20
2019-03-12T05:12:49.371Z,83.50
2019-03-12T05:15:20.590Z,81.70
2019-03-12T05:17:51.053Z,82.00
2019-03-12T05:20:21.536Z,81.10
2019-03-12T05:22:51.992Z,81.10
2019-03-12T05:25:22.487Z,80.50
2019-03-12T05:27:52.943Z,80.00
2019-03-12T05:30:23.524Z,80.00
2019-03-12T05:32:54.166Z,81.50
2019-03-12T05:35:24.654Z,80.90
2019-03-12T05:37:56.286Z,80.50
2019-03-12T05:40:26.780Z,81.50
2019-03-12T05:42:57.255Z,81.00
2019-03-12T05:45:28.410Z,81.60
2019-03-12T05:47:58.869Z,80.00
2019-03-12T05:50:29.337Z,80.20
2019-03-12T05:53:14.578Z,80.70
2019-03-12T05:55:45.137Z,80.60
2019-03-12T05:58:15.633Z,79.10
2019-03-12T06:00:46.100Z,79.70
2019-03-12T06:03:16.595Z,79.70
2019-03-12T06:05:47.041Z,78.70
2019-03-12T06:08:17.546Z,78.80
2019-03-12T06:10:48.023Z,78.90
2019-03-12T06:13:18.521Z,77.10
2019-03-12T06:15:48.998Z,74.40
2019-03-12T06:18:19.498Z,75.40
2019-03-12T06:20:49.971Z,74.60
2019-03-12T06:23:20.474Z,74.70
2019-03-12T06:25:50.925Z,77.30
2019-03-12T06:28:21.418Z,75.50
2019-03-12T06:30:53.520Z,75.80
2019-03-12T06:33:28.075Z,76.90
2019-03-12T06:36:16.568Z,77.40
2019-03-12T06:38:48.720Z,77.60
2019-03-12T06:41:20.821Z,78.60
2019-03-12T06:43:55.922Z,79.80
2019-03-12T06:46:29.165Z,79.40
2019-03-12T06:49:01.304Z,79.80
2019-03-12T06:51:33.488Z,78.90
2019-03-12T06:54:14.511Z,76.30
2019-03-12T06:56:50.791Z,76.10
2019-03-12T06:59:22.908Z,76.80
2019-03-12T07:02:13.118Z,77.30
2019-03-12T07:04:49.654Z,75.50
2019-03-12T07:07:41.576Z,75.20
2019-03-12T07:10:22.100Z,75.90
2019-03-12T07:12:56.907Z,76.60
2019-03-12T07:15:47.395Z,78.40
2019-03-12T07:18:19.522Z,77.80
2019-03-12T07:20:57.195Z,76.70
2019-03-12T07:23:45.916Z,76.40
2019-03-12T07:26:19.544Z,74.30
2019-03-12T07:28:54.473Z,71.30
2019-03-12T07:31:42.959Z,70.10
2019-03-12T07:34:18.148Z,69.90
2019-03-12T07:36:54.255Z,69.10
2019-03-12T07:39:27.155Z,67.20
2019-03-12T07:42:02.012Z,67.30
2019-03-12T07:44:52.970Z,65.20
2019-03-12T07:47:35.177Z,65.80
2019-03-12T07:49:58.892Z,61.00
2019-03-12T07:52:33.737Z,61.90
2019-03-12T07:55:12.778Z,61.70
2019-03-12T07:57:45.780Z,63.70
2019-03-12T08:00:17.994Z,63.80
2019-03-12T08:02:50.139Z,61.40
2019-03-12T08:05:38.605Z,61.20
2019-03-12T08:08:22.554Z,64.10
2019-03-12T08:10:58.644Z,60.70
2019-03-12T08:13:42.583Z,60.00
2019-03-12T08:16:25.622Z,60.40
2019-03-12T08:19:05.915Z,59.70
2019-03-12T08:21:44.030Z,58.30
2019-03-12T08:24:16.194Z,57.30
2019-03-12T08:27:05.742Z,61.40
2019-03-12T08:29:49.602Z,59.60
2019-03-12T08:32:24.191Z,58.90
2019-03-12T08:34:58.961Z,58.50
2019-03-12T08:37:34.435Z,56.10
2019-03-12T08:40:10.395Z,54.70
2019-03-12T08:42:54.863Z,54.90
2019-03-12T08:45:32.521Z,53.50
2019-03-12T08:48:22.011Z,55.40
2019-03-12T08:50:56.826Z,54.50
2019-03-12T08:53:30.024Z,55.30
2019-03-12T08:56:12.416Z,54.90
2019-03-12T08:58:59.636Z,55.00
2019-03-12T09:01:31.770Z,52.10
2019-03-12T09:04:25.185Z,53.60
2019-03-12T09:06:57.338Z,53.20
2019-03-12T09:09:33.516Z,53.40
2019-03-12T09:12:15.744Z,52.10
2019-03-12T09:15:04.024Z,53.00
2019-03-12T09:17:37.288Z,52.30
2019-03-12T09:20:13.292Z,51.20
2019-03-12T09:22:48.070Z,50.60
2019-03-12T09:25:22.862Z,51.50
2019-03-12T09:28:11.180Z,50.00
2019-03-12T09:30:46.571Z,52.70
2019-03-12T09:33:18.670Z,50.90
2019-03-12T09:35:57.666Z,50.20
2019-03-12T09:38:29.759Z,50.30
2019-03-12T09:41:11.856Z,48.90
2019-03-12T09:43:53.334Z,50.40
2019-03-12T09:46:27.370Z,48.30
2019-03-12T09:48:57.585Z,47.00
2019-03-12T09:51:29.720Z,44.80
2019-03-12T09:54:03.363Z,44.80
2019-03-12T09:56:52.940Z,44.40
2019-03-12T09:59:27.992Z,44.90
2019-03-12T10:02:15.537Z,46.20
2019-03-12T10:04:49.227Z,42.60
2019-03-12T10:07:21.379Z,42.80
2019-03-12T10:09:55.879Z,42.30
2019-03-12T10:12:45.345Z,41.70
2019-03-12T10:15:20.372Z,41.20
2019-03-12T10:18:08.588Z,43.00
2019-03-12T10:20:56.909Z,42.40
2019-03-12T10:23:39.201Z,40.40
2019-03-12T10:26:12.530Z,39.80
2019-03-12T10:28:44.664Z,40.30
2019-03-12T10:31:27.333Z,41.00
2019-03-12T10:34:00.525Z,37.40
2019-03-12T10:36:42.410Z,36.10
2019-03-12T10:39:56.320Z,37.40
2019-03-12T10:42:37.214Z,38.10
2019-03-12T10:45:15.420Z,37.80
2019-03-12T10:47:59.640Z,37.40
2019-03-12T10:50:30.356Z,37.70
2019-03-12T10:53:00.825Z,39.00
2019-03-12T10:55:32.599Z,38.30
2019-03-12T10:58:04.739Z,37.70
2019-03-12T11:00:35.609Z,38.30
2019-03-12T11:03:06.143Z,37.60
2019-03-12T11:05:45.867Z,37.50
2019-03-12T11:08:11.035Z,36.40
2019-03-12T11:10:41.525Z,37.30
2019-03-12T11:13:15.261Z,38.20
2019-03-12T11:15:47.623Z,34.60
2019-03-12T11:18:19.664Z,36.00
2019-03-12T11:20:51.742Z,36.90
2019-03-12T11:23:22.211Z,37.30
2019-03-12T11:25:54.170Z,37.00
2019-03-12T11:28:26.725Z,33.20
2019-03-12T11:30:57.483Z,32.90
2019-03-12T11:33:30.885Z,31.70
2019-03-12T11:36:01.342Z,30.90
2019-03-12T11:38:32.532Z,31.80
2019-03-12T11:41:03.702Z,29.90
2019-03-12T11:43:35.211Z,29.30
2019-03-12T11:46:07.470Z,29.90
2019-03-12T11:48:37.999Z,30.40
2019-03-12T11:51:10.065Z,28.90
2019-03-12T11:53:40.655Z,28.30
2019-03-12T11:56:11.184Z,28.60
2019-03-12T11:58:41.733Z,29.20
2019-03-12T12:01:12.350Z,30.20
2019-03-12T12:03:44.044Z,33.10
2019-03-12T12:06:14.577Z,34.10
2019-03-12T12:08:45.758Z,34.70
2019-03-12T12:11:17.737Z,33.40
2019-03-12T12:13:48.471Z,32.20
2019-03-12T12:16:19.001Z,31.60
2019-03-12T12:18:49.662Z,31.70
2019-03-12T12:21:20.162Z,33.80
2019-03-12T12:23:50.655Z,34.60
2019-03-12T12:26:21.168Z,33.60
2019-03-12T12:28:51.640Z,33.80
2019-03-12T12:31:22.161Z,32.10
2019-03-12T12:33:52.620Z,34.30
2019-03-12T12:36:23.123Z,32.10
2019-03-12T12:38:54.269Z,31.30
2019-03-12T12:41:25.897Z,32.90
2019-03-12T12:43:57.915Z,32.10
2019-03-12T12:46:30.128Z,32.10
2019-03-12T12:49:01.396Z,31.10
2019-03-12T12:51:35.896Z,31.80
2019-03-12T12:54:09.487Z,32.90
2019-03-12T12:56:40.203Z,32.80
2019-03-12T12:59:10.713Z,33.20
2019-03-12T13:01:42.994Z,33.50
2019-03-12T13:04:15.088Z,34.30
2019-03-12T13:06:47.164Z,31.20
2019-03-12T13:09:17.653Z,31.20
2019-03-12T13:11:49.073Z,32.40
2019-03-12T13:14:19.541Z,33.10
2019-03-12T13:16:50.069Z,34.70
2019-03-12T13:19:21.154Z,34.80
2019-03-12T13:21:51.630Z,33.10
2019-03-12T13:24:24.317Z,31.20
2019-03-12T13:26:54.840Z,30.50
2019-03-12T13:29:25.326Z,29.70
2019-03-12T13:31:56.914Z,30.40
2019-03-12T13:34:28.192Z,29.40
2019-03-12T13:37:00.377Z,27.80
2019-03-12T13:39:30.844Z,27.30
2019-03-12T13:42:01.362Z,28.20
2019-03-12T13:44:50.543Z,28.40
2019-03-12T13:47:28.736Z,28.10
2019-03-12T13:49:55.967Z,28.50
2019-03-12T13:52:28.545Z,29.50
2019-03-12T13:54:59.137Z,29.60
2019-03-12T13:57:29.657Z,28.80
2019-03-12T14:00:01.279Z,29.00
2019-03-12T14:02:32.228Z,28.90
2019-03-12T14:05:04.715Z,28.90
2019-03-12T14:07:35.240Z,29.80
2019-03-12T14:10:17.805Z,30.20
2019-03-12T14:12:49.172Z,30.60
2019-03-12T14:15:31.419Z,31.40
2019-03-12T14:18:02.611Z,30.10
2019-03-12T14:21:12.991Z,30.00
2019-03-12T14:23:50.946Z,31.10
2019-03-12T14:26:24.364Z,31.20
2019-03-12T14:28:54.894Z,32.20
2019-03-12T14:31:25.489Z,31.20
2019-03-12T14:33:56.249Z,30.90
2019-03-12T14:36:26.777Z,31.50
2019-03-12T14:38:58.300Z,32.80
2019-03-12T14:41:29.501Z,32.60
2019-03-12T14:44:01.610Z,31.80
2019-03-12T14:46:33.308Z,31.80
2019-03-12T14:49:06.637Z,31.40
2019-03-12T14:51:44.729Z,30.30
2019-03-12T14:54:16.920Z,30.50
2019-03-12T14:56:47.407Z,29.90
2019-03-12T14:59:17.977Z,30.20
2019-03-12T15:01:48.456Z,30.10
2019-03-12T15:04:19.715Z,30.00
2019-03-12T15:06:50.260Z,31.60
2019-03-12T15:09:20.760Z,33.30
2019-03-12T15:11:51.201Z,34.50
2019-03-12T15:14:21.735Z,34.60
2019-03-12T15:16:52.165Z,35.60
2019-03-12T15:19:23.214Z,36.90
2019-03-12T15:21:54.895Z,37.90
2019-03-12T15:24:25.455Z,39.10
2019-03-12T15:26:55.915Z,39.80
2019-03-12T15:29:26.394Z,40.60
2019-03-12T15:32:04.074Z,41.40
2019-03-12T15:34:29.300Z,41.50
2019-03-12T15:36:59.784Z,41.00
2019-03-12T15:39:30.614Z,40.90
2019-03-12T15:42:04.042Z,40.60
2019-03-12T15:44:34.530Z,41.00
2019-03-12T15:47:08.756Z,41.50
2019-03-12T15:49:37.911Z,41.90
2019-03-12T15:52:10.946Z,42.50
2019-03-12T15:54:42.442Z,43.40
2019-03-12T15:57:14.478Z,44.20
2019-03-12T15:59:46.516Z,44.20
2019-03-12T16:02:18.832Z,45.00
2019-03-12T16:04:50.566Z,46.00
2019-03-12T16:07:23.601Z,46.60
2019-03-12T16:09:57.207Z,47.50
2019-03-12T16:12:27.684Z,48.20
2019-03-12T16:14:59.688Z,48.30
2019-03-12T16:17:32.707Z,48.80
2019-03-12T16:20:09.804Z,49.00
2019-03-12T16:22:41.189Z,49.40
2019-03-12T16:25:12.440Z,49.40
2019-03-12T16:27:42.885Z,49.50
2019-03-12T16:30:21.635Z,49.60
2019-03-12T16:32:52.808Z,50.10
2019-03-12T16:35:23.289Z,50.90
2019-03-12T16:37:55.593Z,52.10
2019-03-12T16:40:26.746Z,51.80
2019-03-12T16:42:57.189Z,51.80
2019-03-12T16:45:27.672Z,52.30
2019-03-12T16:47:58.942Z,54.20
2019-03-12T16:50:30.056Z,55.20
2019-03-12T16:53:02.188Z,56.40
2019-03-12T16:55:32.673Z,58.00
2019-03-12T16:58:03.195Z,59.90
2019-03-12T17:00:35.806Z,61.60
2019-03-12T17:03:07.384Z,63.10
2019-03-12T17:05:37.975Z,64.70
2019-03-12T17:08:08.515Z,66.50
2019-03-12T17:11:02.734Z,67.50
2019-03-12T17:13:32.082Z,69.70
2019-03-12T17:16:02.654Z,71.20
2019-03-12T17:18:34.190Z,72.90
2019-03-12T17:21:04.768Z,74.10
2019-03-12T17:23:35.265Z,75.40
2019-03-12T17:26:07.536Z,76.80
2019-03-12T17:28:38.038Z,78.40
2019-03-12T17:31:09.040Z,79.20
2019-03-12T17:33:39.595Z,76.60
2019-03-12T17:36:10.136Z,76.90
2019-03-12T17:38:47.061Z,79.00
2019-03-12T17:41:17.539Z,80.00
2019-03-12T17:43:49.729Z,79.70
2019-03-12T17:46:21.746Z,81.60
2019-03-12T17:48:52.880Z,82.70
2019-03-12T17:51:26.649Z,82.40
2019-03-12T17:53:58.823Z,83.50
2019-03-12T17:56:29.429Z,84.90
2019-03-12T17:59:00.008Z,85.00
2019-03-12T18:01:30.520Z,85.80
2019-03-12T18:04:00.977Z,86.30
2019-03-12T18:06:34.796Z,87.10
2019-03-12T18:09:08.429Z,88.30
2019-03-12T18:11:37.585Z,88.10
2019-03-12T18:14:09.115Z,88.80
2019-03-12T18:16:41.280Z,89.20
2019-03-12T18:19:12.334Z,89.50
2019-03-12T18:21:42.823Z,89.80
2019-03-12T18:24:14.872Z,90.10
2019-03-12T18:26:45.385Z,90.40
2019-03-12T18:29:15.868Z,90.30
2019-03-12T18:31:46.332Z,90.10
2019-03-12T18:34:17.377Z,89.40
2019-03-12T18:36:47.856Z,89.40
2019-03-12T18:39:21.160Z,90.20
2019-03-12T18:41:51.624Z,90.30
2019-03-12T18:44:23.145Z,90.50
2019-03-12T18:46:55.981Z,90.60
2019-03-12T18:49:26.466Z,90.90
2019-03-12T18:51:57.069Z,90.90
2019-03-12T18:54:29.095Z,90.60
2019-03-12T18:56:59.604Z,91.00
2019-03-12T18:59:30.797Z,91.40
2019-03-12T19:02:01.295Z,91.80
2019-03-12T19:04:34.727Z,92.10
2019-03-12T19:07:05.314Z,92.30
2019-03-12T19:09:35.823Z,92.50
2019-03-12T19:12:06.353Z,93.00
2019-03-12T19:14:36.827Z,93.40
2019-03-12T19:17:07.325Z,93.50
2019-03-12T19:19:37.803Z,93.40
2019-03-12T19:22:08.456Z,93.70
2019-03-12T19:24:38.977Z,93.40
2019-03-12T19:27:09.513Z,93.50
2019-03-12T19:29:40.009Z,93.40
2019-03-12T19:32:12.774Z,92.90
2019-03-12T19:34:43.896Z,92.70
2019-03-12T19:37:14.489Z,93.10
2019-03-12T19:39:45.158Z,93.40
2019-03-12T19:42:15.690Z,93.40
2019-03-12T19:44:46.269Z,93.40
2019-03-12T19:47:16.782Z,93.30
2019-03-12T19:49:47.313Z,93.40
2019-03-12T19:52:17.957Z,93.50
2019-03-12T19:54:48.400Z,93.60
2019-03-12T19:57:19.631Z,93.50
2019-03-12T19:59:50.112Z,93.90
2019-03-12T20:02:20.743Z,94.00
2019-03-12T20:04:51.296Z,93.80
2019-03-12T20:07:21.752Z,93.90
2019-03-12T20:09:57.613Z,93.70
2019-03-12T20:13:00.148Z,93.50
2019-03-12T20:16:07.336Z,93.30
2019-03-12T20:19:31.262Z,93.30
2019-03-12T20:22:22.247Z,93.80
2019-03-12T20:25:38.587Z,94.20
2019-03-12T20:28:36.174Z,94.40
2019-03-12T20:31:45.868Z,94.80
2019-03-12T20:35:06.250Z,95.10
2019-03-12T20:38:02.518Z,95.20
2019-03-12T20:41:17.274Z,95.30
2019-03-12T20:44:27.305Z,95.40
2019-03-12T20:47:35.958Z,95.40
2019-03-12T20:50:44.558Z,95.20
2019-03-12T20:54:00.090Z,95.10
2019-03-12T20:57:04.610Z,94.90
2019-03-12T21:00:27.986Z,95.30
2019-03-12T21:03:35.062Z,95.10
2019-03-12T21:06:43.369Z,95.20
2019-03-12T21:09:24.974Z,95.20
2019-03-12T21:12:42.515Z,95.20
2019-03-12T21:15:43.139Z,95.10
2019-03-12T21:19:08.919Z,95.20
2019-03-12T21:22:27.791Z,95.30
2019-03-12T21:25:20.522Z,95.10
2019-03-12T21:28:32.685Z,95.30
2019-03-12T21:31:03.227Z,95.40
2019-03-12T21:33:35.361Z,95.40
2019-03-12T21:36:08.348Z,95.70
2019-03-12T21:38:40.522Z,95.80
2019-03-12T21:41:13.360Z,95.70
2019-03-12T21:43:43.929Z,95.50
2019-03-12T21:46:14.574Z,95.50
2019-03-12T21:48:45.093Z,95.60
2019-03-12T21:51:15.580Z,96.20
2019-03-12T21:53:46.037Z,96.40
2019-03-12T21:56:16.550Z,96.50
2019-03-12T21:58:47.567Z,96.60
2019-03-12T22:01:19.378Z,96.70
2019-03-12T22:03:51.269Z,96.50
2019-03-12T22:06:21.749Z,96.10
2019-03-12T22:08:54.177Z,96.10
2019-03-12T22:11:24.666Z,96.20
2019-03-12T22:13:55.176Z,96.30
2019-03-12T22:16:26.218Z,96.40
2019-03-12T22:18:56.726Z,96.60
2019-03-12T22:21:28.876Z,96.70
2019-03-12T22:24:00.973Z,96.70
2019-03-12T22:26:31.994Z,96.60
2019-03-12T22:29:02.517Z,96.60
2019-03-12T22:31:33.155Z,96.70
2019-03-12T22:34:03.638Z,96.80
2019-03-12T22:36:34.099Z,96.70
2019-03-12T22:39:05.732Z,96.70
2019-03-12T22:41:36.220Z,97.00
2019-03-12T22:44:06.693Z,97.10
2019-03-12T22:46:39.070Z,96.90
2019-03-12T22:49:10.445Z,96.80
2019-03-12T22:51:40.932Z,97.00
2019-03-12T22:54:12.952Z,97.00
2019-03-12T22:56:43.807Z,97.00
2019-03-12T22:59:15.445Z,97.00
2019-03-12T23:01:46.169Z,97.00
2019-03-12T23:04:17.297Z,97.10
2019-03-12T23:06:48.365Z,97.10
2019-03-12T23:09:19.042Z,97.20
2019-03-12T23:11:50.210Z,97.30
2019-03-12T23:14:20.865Z,97.30
2019-03-12T23:16:52.380Z,97.30
2019-03-12T23:19:22.868Z,97.30
2019-03-12T23:21:53.401Z,97.20
2019-03-12T23:24:25.591Z,97.00
2019-03-12T23:26:56.053Z,96.90
2019-03-12T23:29:27.590Z,97.10
2019-03-12T23:31:58.052Z,97.50
2019-03-12T23:34:28.567Z,97.70
2019-03-12T23:36:59.040Z,97.80
2019-03-12T23:39:29.522Z,97.90
2019-03-12T23:42:00.663Z,98.30
2019-03-12T23:44:31.894Z,98.00
2019-03-12T23:47:03.983Z,98.10
2019-03-12T23:49:35.239Z,98.20
2019-03-12T23:52:05.804Z,98.20
2019-03-12T23:54:37.029Z,98.10
2019-03-12T23:57:09.236Z,98.30
2019-03-12T23:59:40.319Z,98.40
